Hudson Oaks, Texas
Current Conditions -  °F | °C
As of 7:15 PM on Thursday 27 Nov 2014 (Local Time) from KGDJ Reporting Station
Clear Clear  
Wind Chill: 51°   Ceiling: Unl
Heat Index: 51°   Visibility: 10mi
Dew Point: 28°   Wind: 5mph
Humidity: 40%   Direction: 140°SE
Pressure: 30.39"   Gusts: NA
Location:  32.6854°N, 97.7998°W
Report Text: KGDJ 280115Z AUTO 14004KT 10SM CLR 11/M02 A3039 RMK AO2 T01071025
Loading
Personal Weather Stations






























Interactive Weather Map New forecast layout! Learn more

10-Day Weather Forecast

Advertisements
Track Severe Weather on mobile